Time;durP1;ratioP1;P1;durP2;ratioP2;P2;SDS_P1;SDS_P2;PMS_P1;PMS_P2;Temp;Humidity;BMP_temperature;BMP_pressure;BME280_temperature;BME280_humidity;BME280_pressure;Samples;Min_cycle;Max_cycle;Signal;HPM_P1;HPM_P2
2021/11/29 00:01:56;;;;;;;3.30;1.13;;;;;;;-142.75;100.00;77554.66;4986232;28;20018;-66
2021/11/29 00:04:22;;;;;;;5.23;1.07;;;;;;;-142.75;100.00;77562.53;4986245;28;20073;-66
2021/11/29 00:06:47;;;;;;;3.22;1.13;;;;;;;-142.75;100.00;77566.47;4986209;28;20026;-66
2021/11/29 00:09:13;;;;;;;1.80;0.73;;;;;;;-142.75;100.00;77576.31;4986204;28;20037;-66
2021/11/29 00:11:39;;;;;;;3.22;1.05;;;;;;;-142.75;100.00;77584.19;4985389;28;20033;-66
2021/11/29 00:14:05;;;;;;;3.55;1.15;;;;;;;-142.75;100.00;77599.94;4985960;28;20539;-67
2021/11/29 00:16:30;;;;;;;2.78;1.02;;;;;;;-142.75;100.00;77605.84;4986042;28;20136;-65
2021/11/29 00:18:55;;;;;;;2.03;0.80;;;;;;;-142.75;100.00;77613.72;4985998;28;20462;-66
2021/11/29 00:21:21;;;;;;;2.85;1.00;;;;;;;-142.75;100.00;77611.75;4985144;28;20399;-66
2021/11/29 00:23:46;;;;;;;5.03;1.02;;;;;;;-142.75;100.00;77621.59;4986064;28;20037;-66
2021/11/29 00:26:19;;;;;;;2.50;1.30;;;;;;;-142.75;100.00;77617.66;4986027;28;20072;-66
2021/11/29 00:28:44;;;;;;;8.57;1.53;;;;;;;-142.75;100.00;77605.84;4986225;28;20055;-66
2021/11/29 00:31:10;;;;;;;2.83;1.30;;;;;;;-142.75;100.00;77601.91;4985764;28;20069;-66
2021/11/29 00:33:35;;;;;;;3.53;1.00;;;;;;;-142.75;100.00;77597.97;4984841;28;20019;-65
2021/11/29 00:36:02;;;;;;;8.02;1.40;;;;;;;-142.75;100.00;77590.09;4985642;28;20027;-66
2021/11/29 00:38:27;;;;;;;;;;;;;;;-142.75;100.00;77592.06;4986229;28;20030;-66
2021/11/29 00:40:52;;;;;;;3.73;1.60;;;;;;;-142.75;100.00;77584.19;4985027;28;19921;-66
2021/11/29 00:43:18;;;;;;;4.43;0.77;;;;;;;-142.75;100.00;77592.06;4986063;28;20030;-66
2021/11/29 00:45:43;;;;;;;2.83;0.90;;;;;;;-142.75;100.00;77611.75;4988399;28;20471;-65
2021/11/29 00:48:08;;;;;;;3.67;0.80;;;;;;;-142.75;100.00;77619.63;4988249;28;20049;-65
2021/11/29 00:50:38;;;;;;;4.03;0.75;;;;;;;-142.75;100.00;77635.38;4988478;28;20022;-66
2021/11/29 00:53:08;;;;;;;4.53;0.70;;;;;;;-142.75;100.00;77633.41;4988914;28;20030;-66
2021/11/29 00:55:34;;;;;;;3.80;0.90;;;;;;;-142.75;100.00;77633.41;4988872;28;20027;-65
2021/11/29 00:58:00;;;;;;;2.17;0.73;;;;;;;-142.75;100.00;77647.19;4989132;28;20030;-66
2021/11/29 01:00:27;;;;;;;3.20;0.70;;;;;;;-142.75;100.00;77649.16;4988737;28;20408;-66
2021/11/29 01:02:53;;;;;;;1.17;0.50;;;;;;;-142.75;100.00;77649.16;4988977;28;20033;-66
2021/11/29 01:05:18;;;;;;;1.13;0.52;;;;;;;-142.75;100.00;77641.28;4989337;28;20018;-66
2021/11/29 01:07:44;;;;;;;1.45;0.70;;;;;;;-142.75;100.00;77639.31;4988855;28;20022;-66
2021/11/29 01:10:15;;;;;;;4.72;0.73;;;;;;;-142.75;100.00;77625.53;4988052;28;20117;-66
2021/11/29 01:12:43;;;;;;;2.87;0.60;;;;;;;-142.75;100.00;77617.66;4988807;28;20034;-65
2021/11/29 01:15:14;;;;;;;1.77;0.60;;;;;;;-142.75;100.00;77605.84;4988660;28;20026;-66
2021/11/29 01:17:40;;;;;;;2.53;0.97;;;;;;;-142.75;100.00;77613.72;4988635;28;20995;-65
2021/11/29 01:20:07;;;;;;;1.40;0.75;;;;;;;-142.75;100.00;77613.72;4988068;28;20026;-66
2021/11/29 01:22:33;;;;;;;1.67;0.60;;;;;;;-142.75;100.00;77615.69;4988639;28;20487;-66
2021/11/29 01:24:58;;;;;;;5.38;0.95;;;;;;;-142.75;100.00;77613.72;4988496;28;20026;-65
2021/11/29 01:27:23;;;;;;;2.20;0.90;;;;;;;-142.75;100.00;77633.41;4988616;28;20475;-66
2021/11/29 01:29:49;;;;;;;1.55;0.40;;;;;;;-142.75;100.00;77625.53;4988245;28;20030;-65
2021/11/29 01:32:14;;;;;;;3.70;0.85;;;;;;;-142.75;100.00;77633.41;4989003;28;20038;-66
2021/11/29 01:34:39;;;;;;;1.23;0.60;;;;;;;-142.75;100.00;77637.34;4988464;28;20441;-66
2021/11/29 01:37:05;;;;;;;2.80;0.47;;;;;;;-142.75;100.00;77641.28;4988437;28;20287;-65
2021/11/29 01:39:31;;;;;;;1.55;0.50;;;;;;;-142.75;100.00;77629.47;4988360;28;20026;-66
2021/11/29 01:41:57;;;;;;;1.17;0.30;;;;;;;-142.75;100.00;77631.44;4987394;28;20032;-66
2021/11/29 01:44:22;;;;;;;4.50;0.52;;;;;;;-142.75;100.00;77621.59;4988266;28;20030;-66
2021/11/29 01:46:47;;;;;;;3.97;0.50;;;;;;;-142.75;100.00;77627.50;4986899;28;20030;-65
2021/11/29 01:49:13;;;;;;;1.57;0.47;;;;;;;-142.75;100.00;77629.47;4987117;28;20278;-66
2021/11/29 01:51:39;;;;;;;0.63;0.40;;;;;;;-142.75;100.00;77641.28;5010378;23;21976;-67
2021/11/29 01:54:04;;;;;;;3.30;0.45;;;;;;;-142.75;100.00;77649.16;5003169;28;20523;-69
2021/11/29 01:56:30;;;;;;;2.97;0.50;;;;;;;-142.75;100.00;77662.94;4985578;28;20034;-68
2021/11/29 01:58:55;;;;;;;2.85;0.38;;;;;;;-142.75;100.00;77696.41;5003224;28;20034;-68
2021/11/29 02:01:23;;;;;;;2.40;0.52;;;;;;;-142.75;100.00;77712.16;4987687;28;20026;-67
2021/11/29 02:03:53;;;;;;;1.27;0.40;;;;;;;-142.75;100.00;77710.19;4988155;28;20041;-68
2021/11/29 02:06:19;;;;;;;1.20;0.33;;;;;;;-142.75;100.00;77712.16;4987010;28;20031;-68
2021/11/29 02:08:45;;;;;;;0.95;0.40;;;;;;;-142.75;100.00;77704.28;4988342;28;20031;-68
2021/11/29 02:11:10;;;;;;;1.58;0.40;;;;;;;-142.75;100.00;77700.34;4987058;28;20078;-68
2021/11/29 02:13:37;;;;;;;3.30;0.40;;;;;;;-142.75;100.00;77704.28;4987851;28;20525;-68
2021/11/29 02:16:03;;;;;;;;;;;;;;;-142.75;100.00;77700.34;4988227;28;20041;-68
2021/11/29 02:18:32;;;;;;;0.90;0.40;;;;;;;-142.75;100.00;77684.59;4987724;28;19961;-68
2021/11/29 02:20:57;;;;;;;2.13;0.50;;;;;;;-142.75;100.00;77668.84;4985736;28;20031;-68
2021/11/29 02:23:23;;;;;;;4.22;0.70;;;;;;;-142.75;100.00;77659.00;4987719;28;20037;-68
2021/11/29 02:25:48;;;;;;;1.77;0.45;;;;;;;-142.75;100.00;77660.97;4987603;28;20029;-68
2021/11/29 02:28:17;;;;;;;2.13;1.00;;;;;;;-142.75;100.00;77672.78;4986769;28;20022;-68
2021/11/29 02:30:43;;;;;;;1.77;0.80;;;;;;;-142.75;100.00;77692.47;4987347;28;20775;-68
2021/11/29 02:33:08;;;;;;;4.03;1.35;;;;;;;-142.75;100.00;77680.66;4987590;28;20072;-68
2021/11/29 02:35:34;;;;;;;4.45;1.50;;;;;;;-142.75;100.00;77670.81;4986376;28;20395;-68
2021/11/29 02:37:59;;;;;;;6.32;1.38;;;;;;;-142.75;100.00;77668.84;4987550;28;20022;-69
2021/11/29 02:40:24;;;;;;;5.63;1.90;;;;;;;-142.75;100.00;77653.09;4985403;28;20495;-68
2021/11/29 02:42:50;;;;;;;3.58;1.73;;;;;;;-142.75;100.00;77651.13;4987508;28;20030;-68
2021/11/29 02:45:17;;;;;;;2.27;1.43;;;;;;;-142.75;100.00;77639.31;4987749;28;20491;-68
2021/11/29 02:47:42;;;;;;;3.33;1.60;;;;;;;-142.75;100.00;77637.34;4986191;28;20038;-68
2021/11/29 02:50:07;;;;;;;2.80;1.70;;;;;;;-142.75;100.00;77639.31;4986384;28;20038;-68
2021/11/29 02:52:33;;;;;;;3.05;1.40;;;;;;;-142.75;100.00;77662.94;4985921;28;20034;-68
2021/11/29 02:54:58;;;;;;;2.92;1.65;;;;;;;-142.75;100.00;77680.66;4985903;28;20026;-68
2021/11/29 02:57:23;;;;;;;3.35;1.70;;;;;;;-142.75;100.00;77668.84;4987234;28;20491;-69
2021/11/29 02:59:49;;;;;;;3.13;1.52;;;;;;;-142.75;100.00;77670.81;4984273;28;20106;-67
2021/11/29 03:02:18;;;;;;;3.70;1.40;;;;;;;-142.75;100.00;77680.66;4987693;28;20026;-68
2021/11/29 03:04:45;;;;;;;3.27;1.43;;;;;;;-142.75;100.00;77684.59;4986792;28;20498;-68
2021/11/29 03:07:12;;;;;;;4.60;1.43;;;;;;;-142.75;100.00;77690.50;4985413;28;20038;-68
2021/11/29 03:09:38;;;;;;;5.97;1.80;;;;;;;-142.75;100.00;77688.53;4986485;28;20480;-67
2021/11/29 03:12:05;;;;;;;4.57;2.03;;;;;;;-142.75;100.00;77688.53;4986698;28;20033;-68
2021/11/29 03:14:31;;;;;;;3.30;1.57;;;;;;;-142.75;100.00;77668.84;4986853;28;20061;-68
2021/11/29 03:16:57;;;;;;;3.80;1.65;;;;;;;-142.75;100.00;77680.66;4985577;28;20031;-67
2021/11/29 03:19:27;;;;;;;;;;;;;;;-142.75;100.00;77696.41;4987200;28;20812;-68
2021/11/29 03:21:53;;;;;;;2.97;1.53;;;;;;;-142.75;100.00;77698.38;4984614;28;19917;-67
2021/11/29 03:24:18;;;;;;;2.58;1.55;;;;;;;-142.75;100.00;77692.47;4987195;28;20100;-69
2021/11/29 03:26:43;;;;;;;8.73;1.45;;;;;;;-142.75;100.00;77718.06;4986873;28;20046;-68
2021/11/29 03:29:12;;;;;;;4.28;1.40;;;;;;;-142.75;100.00;77704.28;4986784;28;20071;-69
2021/11/29 03:31:39;;;;;;;1.73;1.03;;;;;;;-142.75;100.00;77712.16;4985232;28;20113;-68
2021/11/29 03:34:06;;;;;;;4.93;1.20;;;;;;;-142.75;100.00;77722.00;4986831;28;20025;-68
2021/11/29 03:36:34;;;;;;;2.80;0.70;;;;;;;-142.75;100.00;77722.00;4986659;28;20022;-68
2021/11/29 03:39:00;;;;;;;3.97;1.10;;;;;;;-142.75;100.00;77733.84;4986711;28;20026;-68
2021/11/29 03:41:26;;;;;;;2.92;1.13;;;;;;;-142.75;100.00;77720.03;4984453;28;20028;-68
2021/11/29 03:43:52;;;;;;;1.70;1.10;;;;;;;-142.75;100.00;77731.88;4986609;28;20080;-68
2021/11/29 03:46:17;;;;;;;2.20;0.88;;;;;;;-142.75;100.00;77757.47;4985168;28;20026;-68
2021/11/29 03:48:43;;;;;;;4.85;1.10;;;;;;;-142.75;100.00;77747.63;4986286;28;20450;-69
2021/11/29 03:51:08;;;;;;;4.85;1.20;;;;;;;-142.75;100.00;77759.44;4984486;28;20466;-68
2021/11/29 03:53:34;;;;;;;4.18;1.25;;;;;;;-142.75;100.00;77741.72;4986276;28;20030;-68
2021/11/29 03:56:00;;;;;;;4.13;1.50;;;;;;;-142.75;100.00;77737.78;4986360;28;20069;-68
2021/11/29 03:58:26;;;;;;;5.95;1.35;;;;;;;-142.75;100.00;77733.84;4984818;28;20117;-68
2021/11/29 04:00:52;;;;;;;4.32;1.23;;;;;;;-142.75;100.00;77720.03;4986128;28;20026;-68
2021/11/29 04:03:17;;;;;;;4.60;1.13;;;;;;;-142.75;100.00;77714.13;4985747;28;20041;-68
2021/11/29 04:05:42;;;;;;;2.90;1.13;;;;;;;-142.75;100.00;77702.31;4986218;28;20072;-68
2021/11/29 04:08:08;;;;;;;3.63;1.00;;;;;;;-142.75;100.00;77700.34;4986229;28;20542;-68
2021/11/29 04:10:34;;;;;;;5.18;0.75;;;;;;;-142.75;100.00;77704.28;4985562;28;20026;-68
2021/11/29 04:12:59;;;;;;;1.65;0.70;;;;;;;-142.75;100.00;77696.41;4986065;28;20399;-68
2021/11/29 04:15:25;;;;;;;5.05;1.00;;;;;;;-142.75;100.00;77700.34;4985899;28;20038;-68
2021/11/29 04:17:50;;;;;;;5.53;0.90;;;;;;;-142.75;100.00;77696.41;4986193;28;20023;-68
2021/11/29 04:20:16;;;;;;;4.88;1.10;;;;;;;-142.75;100.00;77690.50;4983456;28;20023;-68
2021/11/29 04:22:47;;;;;;;3.88;1.02;;;;;;;-142.75;100.00;77684.59;4986080;28;20420;-68
2021/11/29 04:25:18;;;;;;;5.93;0.90;;;;;;;-142.75;100.00;77698.38;4986028;28;20033;-68
2021/11/29 04:27:46;;;;;;;9.40;1.10;;;;;;;-142.75;100.00;77692.47;4985925;28;20023;-68
2021/11/29 04:30:17;;;;;;;2.07;0.67;;;;;;;-142.75;100.00;77700.34;4985471;28;20022;-68
2021/11/29 04:32:48;;;;;;;5.20;0.80;;;;;;;-142.75;100.00;77700.34;4986129;28;20552;-68
2021/11/29 04:35:14;;;;;;;5.30;0.70;;;;;;;-142.75;100.00;77698.38;4986112;28;20033;-68
2021/11/29 04:37:39;;;;;;;;;;;;;;;-142.75;100.00;77716.09;4986191;28;20038;-67
2021/11/29 04:40:06;;;;;;;6.43;1.03;;;;;;;-142.75;100.00;77727.94;4985196;28;20336;-68
2021/11/29 04:42:32;;;;;;;5.87;1.00;;;;;;;-142.75;100.00;77720.03;4985769;28;20553;-68
2021/11/29 04:44:57;;;;;;;6.18;1.00;;;;;;;-142.75;100.00;77723.97;4984596;28;20050;-68
2021/11/29 04:47:23;;;;;;;4.60;0.80;;;;;;;-142.75;100.00;77733.84;4983409;28;20049;-68
2021/11/29 04:49:49;;;;;;;4.78;0.77;;;;;;;-142.75;100.00;77723.97;4984931;28;20061;-67
2021/11/29 04:52:14;;;;;;;5.60;0.88;;;;;;;-142.75;100.00;77698.38;4984489;28;20030;-68
2021/11/29 04:54:39;;;;;;;5.93;0.65;;;;;;;-142.75;100.00;77684.59;4985313;28;20102;-68
2021/11/29 04:57:05;;;;;;;2.70;0.82;;;;;;;-142.75;100.00;77657.03;4984349;28;20022;-68
2021/11/29 04:59:30;;;;;;;4.68;0.80;;;;;;;-142.75;100.00;77651.13;4985721;28;20026;-68
2021/11/29 05:01:56;;;;;;;2.05;0.77;;;;;;;-142.75;100.00;77655.06;4985400;28;20097;-68
2021/11/29 05:04:22;;;;;;;6.45;1.02;;;;;;;-142.75;100.00;77653.09;4985447;28;20110;-67
2021/11/29 05:06:47;;;;;;;7.45;1.00;;;;;;;-142.75;100.00;77660.97;4984480;28;20027;-68
2021/11/29 05:09:13;;;;;;;3.40;0.65;;;;;;;-142.75;100.00;77692.47;4985523;28;20500;-68
2021/11/29 05:11:38;;;;;;;5.25;0.88;;;;;;;-142.75;100.00;77708.22;4983350;28;20099;-68
2021/11/29 05:14:04;;;;;;;3.58;0.80;;;;;;;-142.75;100.00;77716.09;4985621;28;20487;-67
2021/11/29 05:16:30;;;;;;;8.35;1.08;;;;;;;-142.75;100.00;77723.97;4984185;28;20030;-68
2021/11/29 05:18:56;;;;;;;7.38;1.10;;;;;;;-142.75;100.00;77684.59;4985523;28;20246;-68
2021/11/29 05:21:23;;;;;;;4.65;1.13;;;;;;;-142.75;100.00;77694.44;4983076;28;20022;-67
2021/11/29 05:23:48;;;;;;;4.17;0.83;;;;;;;-142.75;100.00;77696.41;4984311;28;20552;-66
2021/11/29 05:26:21;;;;;;;4.85;0.90;;;;;;;-142.75;100.00;77688.53;4985613;28;20027;-68
2021/11/29 05:28:47;;;;;;;2.40;0.70;;;;;;;-142.75;100.00;77678.69;4985622;28;20027;-68
2021/11/29 05:31:12;;;;;;;3.57;0.90;;;;;;;-142.75;100.00;77684.59;4985454;28;20518;-68
2021/11/29 05:33:38;;;;;;;6.25;1.33;;;;;;;-142.75;100.00;77662.94;4988905;28;20109;-68
2021/11/29 05:36:04;;;;;;;4.32;0.82;;;;;;;-142.75;100.00;77672.78;4988368;28;20530;-68
2021/11/29 05:38:29;;;;;;;7.80;0.90;;;;;;;-142.75;100.00;77672.78;4988656;28;20506;-67
2021/11/29 05:40:54;;;;;;;3.22;0.75;;;;;;;-142.75;100.00;77668.84;4987948;28;20027;-67
2021/11/29 05:43:20;;;;;;;4.72;0.73;;;;;;;-142.75;100.00;77649.16;4988318;28;20026;-66
2021/11/29 05:45:45;;;;;;;7.55;1.25;;;;;;;-142.75;100.00;77649.16;4989328;28;20027;-67
2021/11/29 05:48:11;;;;;;;5.88;0.60;;;;;;;-142.75;100.00;77657.03;4987819;28;20045;-67
2021/11/29 05:50:37;;;;;;;4.35;0.70;;;;;;;-142.75;100.00;77684.59;4987663;28;20054;-67
2021/11/29 05:53:03;;;;;;;2.90;0.60;;;;;;;-142.75;100.00;77723.97;4988139;28;20392;-67
2021/11/29 05:55:28;;;;;;;5.05;1.10;;;;;;;-142.75;100.00;77733.84;4988345;28;20030;-67
2021/11/29 05:57:53;;;;;;;7.18;1.67;;;;;;;-142.75;100.00;77720.03;4988216;28;20034;-67
2021/11/29 06:00:20;;;;;;;12.43;1.67;;;;;;;-142.75;100.00;77720.03;4988240;28;20030;-67
2021/11/29 06:02:45;;;;;;;6.50;1.10;;;;;;;-142.75;100.00;77720.03;4988637;28;20023;-67
2021/11/29 06:05:12;;;;;;;5.25;1.05;;;;;;;-142.75;100.00;77712.16;4988115;28;20506;-66
2021/11/29 06:07:38;;;;;;;5.87;1.10;;;;;;;-142.75;100.00;77700.34;4988225;28;20026;-67
2021/11/29 06:10:05;;;;;;;6.57;1.20;;;;;;;-142.75;100.00;77698.38;4987481;28;20099;-67
2021/11/29 06:12:30;;;;;;;9.67;0.90;;;;;;;-142.75;100.00;77696.41;4987726;28;20518;-67
2021/11/29 06:14:55;;;;;;;3.45;0.70;;;;;;;-142.75;100.00;77682.63;4988010;28;20022;-67
2021/11/29 06:17:21;;;;;;;3.40;0.63;;;;;;;-142.75;100.00;77674.75;4988119;28;20029;-66
2021/11/29 06:19:46;;;;;;;2.58;0.70;;;;;;;-142.75;100.00;77676.72;4988087;28;20560;-68
2021/11/29 06:22:12;;;;;;;2.42;0.55;;;;;;;-142.75;100.00;77672.78;4987858;28;20049;-66
2021/11/29 06:24:37;;;;;;;1.83;0.40;;;;;;;-142.75;100.00;77674.75;4987922;28;20026;-68
2021/11/29 06:27:02;;;;;;;3.72;0.90;;;;;;;-142.75;100.00;77672.78;4988006;28;20422;-67
2021/11/29 06:29:28;;;;;;;3.95;0.60;;;;;;;-142.75;100.00;77672.78;4988043;28;20125;-67
2021/11/29 06:31:53;;;;;;;2.35;0.80;;;;;;;-142.75;100.00;77668.84;4987312;28;20399;-66
2021/11/29 06:34:18;;;;;;;4.73;0.67;;;;;;;-142.75;100.00;77674.75;4988388;28;20079;-67
2021/11/29 06:36:44;;;;;;;1.67;0.60;;;;;;;-142.75;100.00;77676.72;4987819;28;20639;-68
2021/11/29 06:39:09;;;;;;;5.53;0.70;;;;;;;-142.75;100.00;77659.00;4987583;28;20034;-67
2021/11/29 06:41:35;;;;;;;3.47;0.75;;;;;;;-142.75;100.00;77664.91;4987103;28;20077;-68
2021/11/29 06:44:00;;;;;;;2.70;0.70;;;;;;;-142.75;100.00;77649.16;4988101;28;20026;-67
2021/11/29 06:46:25;;;;;;;4.47;0.60;;;;;;;-142.75;100.00;77660.97;4986678;28;20827;-66
2021/11/29 06:48:51;;;;;;;3.15;0.82;;;;;;;-142.75;100.00;77657.03;4987448;28;20050;-66
2021/11/29 06:51:16;;;;;;;4.13;0.97;;;;;;;-142.75;100.00;77672.78;4987490;28;20114;-68
2021/11/29 06:53:43;;;;;;;4.55;1.10;;;;;;;-142.75;100.00;77655.06;4987297;28;20364;-68
2021/11/29 06:56:08;;;;;;;;;;;;;;;-142.75;100.00;77631.44;4987457;28;20034;-67
2021/11/29 06:58:36;;;;;;;4.63;0.90;;;;;;;-142.75;100.00;77641.28;4987286;28;19914;-67
2021/11/29 07:01:03;;;;;;;4.50;0.77;;;;;;;-142.75;100.00;77631.44;4986693;28;20033;-67
2021/11/29 07:03:29;;;;;;;9.43;0.90;;;;;;;-142.75;100.00;77623.56;4987456;28;20100;-67
2021/11/29 07:05:55;;;;;;;3.85;0.82;;;;;;;-142.75;100.00;77633.41;4985968;28;20038;-67
2021/11/29 07:08:20;;;;;;;4.22;0.80;;;;;;;-142.75;100.00;77629.47;4987804;28;20419;-66
2021/11/29 07:10:47;;;;;;;6.18;0.80;;;;;;;-142.75;100.00;77629.47;4987133;28;20026;-68
2021/11/29 07:13:14;;;;;;;5.40;0.90;;;;;;;-142.75;100.00;77643.25;4986620;28;20530;-67
2021/11/29 07:15:40;;;;;;;4.83;1.20;;;;;;;-142.75;100.00;77639.31;4987588;28;20117;-67
2021/11/29 07:18:06;;;;;;;;;;;;;;;-142.75;100.00;77643.25;4988195;28;20085;-67
2021/11/29 07:20:31;;;;;;;4.07;0.90;;;;;;;-142.75;100.00;77629.47;4986778;28;20388;-67
2021/11/29 07:22:57;;;;;;;5.75;1.05;;;;;;;-142.75;100.00;77627.50;4986332;28;20105;-68
2021/11/29 07:25:23;;;;;;;2.72;0.98;;;;;;;-142.75;100.00;77617.66;4987387;28;20042;-67
2021/11/29 07:27:49;;;;;;;7.63;1.20;;;;;;;-142.75;100.00;77613.72;4987353;28;20058;-64
2021/11/29 07:30:17;;;;;;;7.20;0.88;;;;;;;-142.75;100.00;77615.69;4987153;28;20083;-67
2021/11/29 07:32:43;;;;;;;5.63;1.27;;;;;;;-142.75;100.00;77617.66;4986871;28;20026;-68
2021/11/29 07:35:09;;;;;;;8.77;1.40;;;;;;;-142.75;100.00;77619.63;4987183;28;20487;-67
2021/11/29 07:37:35;;;;;;;4.73;0.90;;;;;;;-142.75;100.00;77613.72;4987542;28;20100;-67
2021/11/29 07:40:03;;;;;;;6.68;1.00;;;;;;;-142.75;100.00;77631.44;4985093;28;20034;-67
2021/11/29 07:42:29;;;;;;;8.10;1.47;;;;;;;-142.75;100.00;77637.34;4987286;28;20029;-67
2021/11/29 07:44:55;;;;;;;6.90;1.47;;;;;;;-142.75;100.00;77631.44;4986658;28;20418;-67
2021/11/29 07:47:21;;;;;;;6.15;1.02;;;;;;;-142.75;100.00;77621.59;4986038;28;20026;-66
2021/11/29 07:49:46;;;;;;;5.63;1.33;;;;;;;-142.75;100.00;77629.47;4986788;28;20060;-67
2021/11/29 07:52:13;;;;;;;8.35;1.20;;;;;;;-142.75;100.00;77641.28;5000264;23;20365;-65
2021/11/29 07:54:40;;;;;;;7.33;1.00;;;;;;;-142.75;100.00;77645.22;4986694;28;20388;-64
2021/11/29 07:57:05;;;;;;;;;;;;;;;-142.75;100.00;77637.34;4987465;28;20034;-64
2021/11/29 07:59:31;;;;;;;8.97;1.20;;;;;;;-142.75;100.00;77651.13;4986996;28;19955;-64
2021/11/29 08:01:58;;;;;;;4.87;1.17;;;;;;;-142.75;100.00;77641.28;4986215;28;20090;-64
2021/11/29 08:04:24;;;;;;;7.13;1.50;;;;;;;-142.75;100.00;77649.16;4986733;28;20113;-64
2021/11/29 08:06:49;;;;;;;4.13;1.38;;;;;;;-142.75;100.00;77649.16;4983839;28;20137;-62
2021/11/29 08:09:15;;;;;;;6.32;1.42;;;;;;;-142.75;100.00;77657.03;4987271;28;20026;-65
2021/11/29 08:11:40;;;;;;;6.82;1.60;;;;;;;-142.75;100.00;77716.09;4984486;28;20047;-65
2021/11/29 08:14:05;;;;;;;9.00;1.80;;;;;;;-142.75;100.00;77712.16;4986063;28;20023;-64
2021/11/29 08:16:30;;;;;;;7.17;1.30;;;;;;;-142.75;100.00;77702.31;4986272;28;20095;-64
2021/11/29 08:18:56;;;;;;;5.63;1.10;;;;;;;-142.75;100.00;77678.69;4985836;28;20274;-64
2021/11/29 08:21:21;;;;;;;7.03;1.37;;;;;;;-142.75;100.00;77662.94;4985017;28;20300;-65
2021/11/29 08:23:46;;;;;;;14.77;2.07;;;;;;;-142.75;100.00;77653.09;4985058;28;20281;-65
2021/11/29 08:26:12;;;;;;;7.25;1.80;;;;;;;-142.75;100.00;77653.09;4985490;28;20654;-64
2021/11/29 08:28:37;;;;;;;6.13;1.23;;;;;;;-142.75;100.00;77657.03;4985505;28;20030;-65
2021/11/29 08:31:02;;;;;;;9.60;1.25;;;;;;;-142.75;100.00;77653.09;4982736;28;20023;-65
2021/11/29 08:33:28;;;;;;;8.68;1.50;;;;;;;-142.75;100.00;77653.09;4985632;28;20491;-64
2021/11/29 08:35:54;;;;;;;11.65;1.65;;;;;;;-142.75;100.00;77631.44;4985457;28;20034;-65
2021/11/29 08:38:19;;;;;;;7.53;1.95;;;;;;;-142.75;100.00;77627.50;4986050;28;20037;-66
2021/11/29 08:40:51;;;;;;;22.00;8.43;;;;;;;-142.75;100.00;77629.47;4984436;28;20510;-65
2021/11/29 08:43:19;;;;;;;19.00;5.90;;;;;;;-142.75;100.00;77645.22;4985421;28;20495;-65
2021/11/29 08:45:48;;;;;;;8.70;2.03;;;;;;;-142.75;100.00;77657.03;4986375;28;20023;-65
2021/11/29 08:48:14;;;;;;;9.83;1.33;;;;;;;-142.75;100.00;77662.94;4985611;28;20484;-65
2021/11/29 08:50:44;;;;;;;11.38;1.55;;;;;;;-142.75;100.00;77678.69;4984616;28;20083;-65
2021/11/29 08:53:12;;;;;;;8.77;1.50;;;;;;;-142.75;100.00;77662.94;4985427;28;20459;-64
2021/11/29 08:55:37;;;;;;;8.87;1.50;;;;;;;-142.75;100.00;77649.16;4985424;28;20105;-65
2021/11/29 08:58:08;;;;;;;15.35;2.15;;;;;;;-142.75;100.00;77641.28;4984956;28;20030;-65
2021/11/29 09:00:35;;;;;;;10.20;2.57;;;;;;;-142.75;100.00;77635.38;4984659;28;20034;-66
2021/11/29 09:03:04;;;;;;;13.63;1.83;;;;;;;-142.75;100.00;77629.47;4985328;28;20030;-65
2021/11/29 09:05:30;;;;;;;11.23;2.33;;;;;;;-142.75;100.00;77631.44;4985089;28;20403;-65
2021/11/29 09:07:55;;;;;;;8.48;1.52;;;;;;;-142.75;100.00;77635.38;4978710;28;20034;-66
2021/11/29 09:10:22;;;;;;;12.33;2.57;;;;;;;-142.75;100.00;77631.44;4991173;28;20041;-66
2021/11/29 09:12:47;;;;;;;8.87;1.57;;;;;;;-142.75;100.00;77629.47;4988511;28;20265;-66
2021/11/29 09:15:15;;;;;;;12.77;1.83;;;;;;;-142.75;100.00;77631.44;4988985;28;20023;-66
2021/11/29 09:17:40;;;;;;;8.00;1.30;;;;;;;-142.75;100.00;77637.34;4988700;28;20486;-66
2021/11/29 09:20:08;;;;;;;14.23;2.03;;;;;;;-142.75;100.00;77623.56;4985646;28;20057;-66
2021/11/29 09:22:34;;;;;;;7.40;1.47;;;;;;;-142.75;100.00;77629.47;4988458;28;20072;-65
2021/11/29 09:25:00;;;;;;;7.27;1.37;;;;;;;-142.75;100.00;77621.59;4987153;28;20048;-65
2021/11/29 09:27:26;;;;;;;;;;;;;;;-142.75;100.00;77621.59;4988607;28;20813;-66
2021/11/29 09:29:52;;;;;;;5.97;1.33;;;;;;;-142.75;100.00;77621.59;4987615;28;20289;-66
2021/11/29 09:32:18;;;;;;;9.63;1.95;;;;;;;-142.75;100.00;77611.75;4987542;28;20132;-65
2021/11/29 09:34:43;;;;;;;8.25;1.40;;;;;;;-142.75;100.00;77615.69;4988320;28;20045;-66
2021/11/29 09:37:09;;;;;;;11.43;2.22;;;;;;;-142.75;100.00;77601.91;4988234;28;20784;-66
2021/11/29 09:39:35;;;;;;;11.35;1.60;;;;;;;-142.75;100.00;77596.00;4986945;28;20083;-66
2021/11/29 09:42:01;;;;;;;7.17;1.10;;;;;;;-142.75;100.00;77601.91;4987174;28;20382;-66
2021/11/29 09:44:26;;;;;;;6.10;1.23;;;;;;;-142.75;100.00;77586.16;4988708;28;20105;-66
2021/11/29 09:46:52;;;;;;;12.48;1.90;;;;;;;-142.75;100.00;77578.28;4993802;28;20066;-66
2021/11/29 09:49:17;;;;;;;11.88;1.80;;;;;;;-142.75;100.00;77580.25;4988667;28;20026;-67
2021/11/29 09:51:42;;;;;;;9.73;1.40;;;;;;;-142.75;100.00;77582.22;4988694;28;20383;-66
2021/11/29 09:54:08;;;;;;;12.63;1.95;;;;;;;-142.75;100.00;77574.34;4989411;28;20280;-66
2021/11/29 09:56:34;;;;;;;11.43;1.23;;;;;;;-142.75;100.00;77578.28;4988131;28;20770;-66
2021/11/29 09:59:00;;;;;;;6.47;1.10;;;;;;;-142.75;100.00;77562.53;4989470;28;20018;-66
2021/11/29 10:01:26;;;;;;;9.50;1.23;;;;;;;-142.75;100.00;77538.91;4988290;28;20037;-66
2021/11/29 10:03:51;;;;;;;9.43;2.10;;;;;;;-142.75;100.00;77515.28;4987741;28;20026;-65
2021/11/29 10:06:17;;;;;;;4.03;0.80;;;;;;;-142.75;100.00;77503.47;4988045;28;20227;-65
2021/11/29 10:08:42;;;;;;;6.97;1.53;;;;;;;-142.75;100.00;77493.63;4989005;28;20273;-65
2021/11/29 10:11:13;;;;;;;6.68;1.00;;;;;;;-142.75;100.00;77499.53;4987399;28;20321;-65
2021/11/29 10:14:09;;;;;;;7.50;1.17;;;;;;;-142.75;100.00;77517.25;4989438;28;20026;-65
2021/11/29 10:16:46;;;;;;;10.80;1.27;;;;;;;-142.75;100.00;77515.28;4988766;28;20038;-65
2021/11/29 10:19:35;;;;;;;6.15;1.25;;;;;;;-142.75;100.00;77527.09;4989379;28;20356;-65
2021/11/29 10:22:19;;;;;;;7.83;1.67;;;;;;;-142.75;100.00;77550.72;4986365;28;20025;-65
2021/11/29 10:24:46;;;;;;;5.97;1.10;;;;;;;-142.75;100.00;77588.13;4987542;28;20030;-66
2021/11/29 10:27:12;;;;;;;3.80;1.10;;;;;;;-142.75;100.00;77580.25;4989089;28;20023;-65
2021/11/29 10:29:37;;;;;;;6.78;1.65;;;;;;;-142.75;100.00;77596.00;4988730;28;20497;-66
2021/11/29 10:32:03;;;;;;;5.13;0.70;;;;;;;-142.75;100.00;77601.91;4987629;28;20029;-65
2021/11/29 10:34:31;;;;;;;6.60;1.63;;;;;;;-142.75;100.00;77601.91;4989066;28;20108;-65
2021/11/29 10:37:02;;;;;;;8.10;0.90;;;;;;;-142.75;100.00;77613.72;4988978;28;20430;-66
2021/11/29 10:39:33;;;;;;;5.53;0.83;;;;;;;-142.75;100.00;77607.81;4988858;28;20014;-66
2021/11/29 10:42:01;;;;;;;5.17;0.70;;;;;;;-142.75;100.00;77590.09;4988140;28;20101;-66
2021/11/29 10:44:32;;;;;;;4.40;0.93;;;;;;;-142.75;100.00;77590.09;4988912;28;20027;-65
2021/11/29 10:47:04;;;;;;;3.63;0.70;;;;;;;-142.75;100.00;77617.66;4988775;28;20019;-66
2021/11/29 10:49:33;;;;;;;6.43;0.87;;;;;;;-142.75;100.00;77629.47;4987482;28;20014;-66
2021/11/29 10:52:01;;;;;;;2.40;0.53;;;;;;;-142.75;100.00;77668.84;4987938;28;20144;-66
2021/11/29 10:54:29;;;;;;;2.30;0.60;;;;;;;-142.75;100.00;77668.84;4988770;28;20101;-66
2021/11/29 10:56:56;;;;;;;2.83;0.60;;;;;;;-142.75;100.00;77678.69;4988687;28;20026;-65
2021/11/29 10:59:27;;;;;;;2.77;0.53;;;;;;;-142.75;100.00;77680.66;4988692;28;20026;-65
2021/11/29 11:02:01;;;;;;;2.43;0.50;;;;;;;-142.75;100.00;77682.63;4987797;28;20026;-66
2021/11/29 11:04:29;;;;;;;2.43;0.40;;;;;;;-142.75;100.00;77676.72;4988657;28;20060;-66
2021/11/29 11:06:59;;;;;;;2.20;0.30;;;;;;;-142.75;100.00;77657.03;4987645;28;20087;-65